sensor_id;sensor_type;location;lat;lon;timestamp;P1;durP1;ratioP1;P2;durP2;ratioP2
59474;SDS011;45288;51.136;16.928;2022-08-03T00:01:05;7.47;;;4.30;;
59474;SDS011;45288;51.136;16.928;2022-08-03T00:03:31;5.03;;;4.10;;
59474;SDS011;45288;51.136;16.928;2022-08-03T00:05:57;8.02;;;4.40;;
59474;SDS011;45288;51.136;16.928;2022-08-03T00:08:23;5.45;;;4.40;;
59474;SDS011;45288;51.136;16.928;2022-08-03T00:10:49;5.60;;;4.33;;
59474;SDS011;45288;51.136;16.928;2022-08-03T00:13:15;5.72;;;4.40;;
59474;SDS011;45288;51.136;16.928;2022-08-03T00:15:41;6.38;;;4.55;;
59474;SDS011;45288;51.136;16.928;2022-08-03T00:18:08;5.47;;;4.40;;
59474;SDS011;45288;51.136;16.928;2022-08-03T00:20:33;7.37;;;4.60;;
59474;SDS011;45288;51.136;16.928;2022-08-03T00:22:59;6.10;;;4.47;;
59474;SDS011;45288;51.136;16.928;2022-08-03T00:25:25;6.70;;;4.60;;
59474;SDS011;45288;51.136;16.928;2022-08-03T00:27:51;5.32;;;4.53;;
59474;SDS011;45288;51.136;16.928;2022-08-03T00:30:17;6.13;;;4.40;;
59474;SDS011;45288;51.136;16.928;2022-08-03T00:32:42;5.78;;;4.30;;
59474;SDS011;45288;51.136;16.928;2022-08-03T00:35:08;5.90;;;4.00;;
59474;SDS011;45288;51.136;16.928;2022-08-03T00:37:34;6.53;;;4.35;;
59474;SDS011;45288;51.136;16.928;2022-08-03T00:40:00;6.70;;;4.78;;
59474;SDS011;45288;51.136;16.928;2022-08-03T00:42:25;7.73;;;4.70;;
59474;SDS011;45288;51.136;16.928;2022-08-03T00:44:51;8.30;;;4.60;;
59474;SDS011;45288;51.136;16.928;2022-08-03T00:47:17;6.78;;;4.68;;
59474;SDS011;45288;51.136;16.928;2022-08-03T00:49:42;5.07;;;4.57;;
59474;SDS011;45288;51.136;16.928;2022-08-03T00:52:08;5.20;;;4.70;;
59474;SDS011;45288;51.136;16.928;2022-08-03T00:54:35;7.32;;;4.60;;
59474;SDS011;45288;51.136;16.928;2022-08-03T00:57:01;8.10;;;4.60;;
59474;SDS011;45288;51.136;16.928;2022-08-03T00:59:28;7.50;;;4.75;;
59474;SDS011;45288;51.136;16.928;2022-08-03T01:01:53;4.88;;;4.07;;
59474;SDS011;45288;51.136;16.928;2022-08-03T01:04:19;5.70;;;4.90;;
59474;SDS011;45288;51.136;16.928;2022-08-03T01:06:48;6.80;;;4.70;;
59474;SDS011;45288;51.136;16.928;2022-08-03T01:09:28;6.95;;;5.28;;
59474;SDS011;45288;51.136;16.928;2022-08-03T01:12:02;6.57;;;4.88;;
59474;SDS011;45288;51.136;16.928;2022-08-03T01:14:37;5.60;;;4.90;;
59474;SDS011;45288;51.136;16.928;2022-08-03T01:17:11;7.63;;;4.40;;
59474;SDS011;45288;51.136;16.928;2022-08-03T01:19:44;5.13;;;4.40;;
59474;SDS011;45288;51.136;16.928;2022-08-03T01:22:20;5.20;;;4.55;;
59474;SDS011;45288;51.136;16.928;2022-08-03T01:25:09;6.40;;;4.55;;
59474;SDS011;45288;51.136;16.928;2022-08-03T01:30:26;6.65;;;4.90;;
59474;SDS011;45288;51.136;16.928;2022-08-03T01:33:03;5.57;;;4.63;;
59474;SDS011;45288;51.136;16.928;2022-08-03T01:35:38;8.00;;;5.03;;
59474;SDS011;45288;51.136;16.928;2022-08-03T01:38:28;6.53;;;4.80;;
59474;SDS011;45288;51.136;16.928;2022-08-03T01:40:52;6.35;;;4.90;;
59474;SDS011;45288;51.136;16.928;2022-08-03T01:43:20;6.97;;;5.13;;
59474;SDS011;45288;51.136;16.928;2022-08-03T01:45:47;8.63;;;5.15;;
59474;SDS011;45288;51.136;16.928;2022-08-03T01:48:14;6.80;;;5.10;;
59474;SDS011;45288;51.136;16.928;2022-08-03T01:50:41;6.00;;;4.78;;
59474;SDS011;45288;51.136;16.928;2022-08-03T01:53:08;7.40;;;4.80;;
59474;SDS011;45288;51.136;16.928;2022-08-03T01:55:34;7.00;;;4.70;;
59474;SDS011;45288;51.136;16.928;2022-08-03T01:58:01;5.93;;;4.93;;
59474;SDS011;45288;51.136;16.928;2022-08-03T02:00:28;6.28;;;4.82;;
59474;SDS011;45288;51.136;16.928;2022-08-03T02:02:54;6.90;;;5.45;;
59474;SDS011;45288;51.136;16.928;2022-08-03T02:05:20;8.00;;;5.15;;
59474;SDS011;45288;51.136;16.928;2022-08-03T02:07:47;6.20;;;5.10;;
59474;SDS011;45288;51.136;16.928;2022-08-03T02:10:14;5.82;;;5.18;;
59474;SDS011;45288;51.136;16.928;2022-08-03T02:12:41;5.93;;;5.22;;
59474;SDS011;45288;51.136;16.928;2022-08-03T02:15:07;7.82;;;5.53;;
59474;SDS011;45288;51.136;16.928;2022-08-03T02:17:33;9.25;;;5.38;;
59474;SDS011;45288;51.136;16.928;2022-08-03T02:20:00;9.00;;;5.60;;
59474;SDS011;45288;51.136;16.928;2022-08-03T02:22:26;6.35;;;5.55;;
59474;SDS011;45288;51.136;16.928;2022-08-03T02:24:53;7.00;;;5.50;;
59474;SDS011;45288;51.136;16.928;2022-08-03T02:27:20;6.82;;;5.38;;
59474;SDS011;45288;51.136;16.928;2022-08-03T02:29:47;6.45;;;5.68;;
59474;SDS011;45288;51.136;16.928;2022-08-03T02:32:16;9.77;;;5.90;;
59474;SDS011;45288;51.136;16.928;2022-08-03T02:34:45;7.78;;;5.45;;
59474;SDS011;45288;51.136;16.928;2022-08-03T02:37:11;6.60;;;5.30;;
59474;SDS011;45288;51.136;16.928;2022-08-03T02:39:38;7.22;;;5.30;;
59474;SDS011;45288;51.136;16.928;2022-08-03T02:42:04;7.40;;;4.90;;
59474;SDS011;45288;51.136;16.928;2022-08-03T02:44:32;7.68;;;4.90;;
59474;SDS011;45288;51.136;16.928;2022-08-03T02:47:02;6.95;;;4.90;;
59474;SDS011;45288;51.136;16.928;2022-08-03T02:49:29;5.43;;;4.53;;
59474;SDS011;45288;51.136;16.928;2022-08-03T02:51:55;5.93;;;4.72;;
59474;SDS011;45288;51.136;16.928;2022-08-03T02:54:22;5.97;;;4.72;;
59474;SDS011;45288;51.136;16.928;2022-08-03T02:56:49;5.70;;;4.37;;
59474;SDS011;45288;51.136;16.928;2022-08-03T02:59:16;6.00;;;4.20;;
59474;SDS011;45288;51.136;16.928;2022-08-03T03:01:43;9.13;;;4.73;;
59474;SDS011;45288;51.136;16.928;2022-08-03T03:04:08;6.65;;;4.70;;
59474;SDS011;45288;51.136;16.928;2022-08-03T03:06:35;6.65;;;4.80;;
59474;SDS011;45288;51.136;16.928;2022-08-03T03:09:01;8.07;;;4.95;;
59474;SDS011;45288;51.136;16.928;2022-08-03T03:11:26;6.73;;;4.87;;
59474;SDS011;45288;51.136;16.928;2022-08-03T03:13:53;6.97;;;4.47;;
59474;SDS011;45288;51.136;16.928;2022-08-03T03:16:21;7.53;;;4.50;;
59474;SDS011;45288;51.136;16.928;2022-08-03T03:18:46;5.23;;;4.10;;
59474;SDS011;45288;51.136;16.928;2022-08-03T03:21:15;6.60;;;4.47;;
59474;SDS011;45288;51.136;16.928;2022-08-03T03:23:41;7.40;;;4.60;;
59474;SDS011;45288;51.136;16.928;2022-08-03T03:26:07;6.20;;;4.40;;
59474;SDS011;45288;51.136;16.928;2022-08-03T03:28:33;5.60;;;4.63;;
59474;SDS011;45288;51.136;16.928;2022-08-03T03:31:03;6.10;;;5.22;;
59474;SDS011;45288;51.136;16.928;2022-08-03T03:33:28;8.63;;;4.97;;
59474;SDS011;45288;51.136;16.928;2022-08-03T03:35:54;6.77;;;5.50;;
59474;SDS011;45288;51.136;16.928;2022-08-03T03:38:20;6.78;;;5.10;;
59474;SDS011;45288;51.136;16.928;2022-08-03T03:40:46;9.45;;;5.50;;
59474;SDS011;45288;51.136;16.928;2022-08-03T03:43:11;8.25;;;5.43;;
59474;SDS011;45288;51.136;16.928;2022-08-03T03:45:39;5.95;;;5.03;;
59474;SDS011;45288;51.136;16.928;2022-08-03T03:48:05;8.05;;;5.72;;
59474;SDS011;45288;51.136;16.928;2022-08-03T03:50:32;7.40;;;5.90;;
59474;SDS011;45288;51.136;16.928;2022-08-03T03:52:58;8.68;;;5.85;;
59474;SDS011;45288;51.136;16.928;2022-08-03T03:55:24;8.70;;;5.97;;
59474;SDS011;45288;51.136;16.928;2022-08-03T03:57:50;8.18;;;6.07;;
59474;SDS011;45288;51.136;16.928;2022-08-03T04:00:16;8.77;;;6.07;;
59474;SDS011;45288;51.136;16.928;2022-08-03T04:02:42;10.43;;;6.38;;
59474;SDS011;45288;51.136;16.928;2022-08-03T04:05:08;8.88;;;6.15;;
59474;SDS011;45288;51.136;16.928;2022-08-03T04:10:36;9.20;;;6.63;;
59474;SDS011;45288;51.136;16.928;2022-08-03T04:13:22;7.55;;;6.78;;
59474;SDS011;45288;51.136;16.928;2022-08-03T04:15:49;7.97;;;6.27;;
59474;SDS011;45288;51.136;16.928;2022-08-03T04:18:16;9.43;;;6.47;;
59474;SDS011;45288;51.136;16.928;2022-08-03T04:20:43;10.40;;;6.53;;
59474;SDS011;45288;51.136;16.928;2022-08-03T04:23:10;9.85;;;6.80;;
59474;SDS011;45288;51.136;16.928;2022-08-03T04:25:36;12.23;;;6.40;;
59474;SDS011;45288;51.136;16.928;2022-08-03T04:28:04;12.13;;;6.40;;
59474;SDS011;45288;51.136;16.928;2022-08-03T04:30:30;16.77;;;6.82;;
59474;SDS011;45288;51.136;16.928;2022-08-03T04:32:57;12.50;;;6.77;;
59474;SDS011;45288;51.136;16.928;2022-08-03T04:35:24;10.73;;;6.80;;
59474;SDS011;45288;51.136;16.928;2022-08-03T04:37:50;10.38;;;6.57;;
59474;SDS011;45288;51.136;16.928;2022-08-03T04:40:26;14.13;;;6.83;;
59474;SDS011;45288;51.136;16.928;2022-08-03T04:42:54;10.60;;;6.85;;
59474;SDS011;45288;51.136;16.928;2022-08-03T04:45:20;10.57;;;6.63;;
59474;SDS011;45288;51.136;16.928;2022-08-03T04:47:46;13.88;;;7.07;;
59474;SDS011;45288;51.136;16.928;2022-08-03T04:50:13;12.65;;;6.60;;
59474;SDS011;45288;51.136;16.928;2022-08-03T04:52:40;10.80;;;6.60;;
59474;SDS011;45288;51.136;16.928;2022-08-03T04:55:06;9.90;;;7.25;;
59474;SDS011;45288;51.136;16.928;2022-08-03T04:57:32;14.82;;;6.95;;
59474;SDS011;45288;51.136;16.928;2022-08-03T04:59:58;15.70;;;7.30;;
59474;SDS011;45288;51.136;16.928;2022-08-03T05:02:24;10.23;;;6.43;;
59474;SDS011;45288;51.136;16.928;2022-08-03T05:04:49;14.45;;;7.13;;
59474;SDS011;45288;51.136;16.928;2022-08-03T05:07:16;14.20;;;6.70;;
59474;SDS011;45288;51.136;16.928;2022-08-03T05:09:42;12.73;;;6.75;;
59474;SDS011;45288;51.136;16.928;2022-08-03T05:12:08;13.25;;;6.90;;
59474;SDS011;45288;51.136;16.928;2022-08-03T05:14:34;12.05;;;6.57;;
59474;SDS011;45288;51.136;16.928;2022-08-03T05:17:02;11.33;;;6.77;;
59474;SDS011;45288;51.136;16.928;2022-08-03T05:19:28;11.43;;;6.43;;
59474;SDS011;45288;51.136;16.928;2022-08-03T05:21:53;10.88;;;6.78;;
59474;SDS011;45288;51.136;16.928;2022-08-03T05:24:19;8.63;;;6.70;;
59474;SDS011;45288;51.136;16.928;2022-08-03T05:26:44;11.00;;;6.23;;
59474;SDS011;45288;51.136;16.928;2022-08-03T05:29:10;9.75;;;6.50;;
59474;SDS011;45288;51.136;16.928;2022-08-03T05:31:36;7.73;;;6.30;;
59474;SDS011;45288;51.136;16.928;2022-08-03T05:34:02;9.75;;;6.75;;
59474;SDS011;45288;51.136;16.928;2022-08-03T05:36:28;10.63;;;6.87;;
59474;SDS011;45288;51.136;16.928;2022-08-03T05:38:53;9.80;;;6.30;;
59474;SDS011;45288;51.136;16.928;2022-08-03T05:41:19;11.25;;;6.40;;
59474;SDS011;45288;51.136;16.928;2022-08-03T05:43:45;12.77;;;6.43;;
59474;SDS011;45288;51.136;16.928;2022-08-03T05:46:10;7.43;;;6.03;;
59474;SDS011;45288;51.136;16.928;2022-08-03T05:48:36;9.73;;;6.27;;
59474;SDS011;45288;51.136;16.928;2022-08-03T05:51:02;8.73;;;5.90;;
59474;SDS011;45288;51.136;16.928;2022-08-03T05:53:32;9.13;;;6.05;;
59474;SDS011;45288;51.136;16.928;2022-08-03T05:55:57;9.10;;;6.07;;
59474;SDS011;45288;51.136;16.928;2022-08-03T05:58:23;9.00;;;6.45;;
59474;SDS011;45288;51.136;16.928;2022-08-03T06:00:49;8.27;;;6.07;;
59474;SDS011;45288;51.136;16.928;2022-08-03T06:03:14;8.23;;;5.57;;
59474;SDS011;45288;51.136;16.928;2022-08-03T06:05:40;8.40;;;5.60;;
59474;SDS011;45288;51.136;16.928;2022-08-03T06:08:05;8.70;;;5.33;;
59474;SDS011;45288;51.136;16.928;2022-08-03T06:10:32;8.60;;;5.70;;
59474;SDS011;45288;51.136;16.928;2022-08-03T06:12:58;7.35;;;5.57;;
59474;SDS011;45288;51.136;16.928;2022-08-03T06:15:24;6.78;;;5.18;;
59474;SDS011;45288;51.136;16.928;2022-08-03T06:17:50;7.43;;;5.10;;
59474;SDS011;45288;51.136;16.928;2022-08-03T06:20:18;5.80;;;5.07;;
59474;SDS011;45288;51.136;16.928;2022-08-03T06:22:45;7.63;;;5.03;;
59474;SDS011;45288;51.136;16.928;2022-08-03T06:25:11;7.18;;;5.00;;
59474;SDS011;45288;51.136;16.928;2022-08-03T06:27:36;9.57;;;5.03;;
59474;SDS011;45288;51.136;16.928;2022-08-03T06:30:07;7.65;;;4.80;;
59474;SDS011;45288;51.136;16.928;2022-08-03T06:32:38;6.18;;;4.80;;
59474;SDS011;45288;51.136;16.928;2022-08-03T06:35:04;6.25;;;4.72;;
59474;SDS011;45288;51.136;16.928;2022-08-03T06:37:30;7.32;;;4.57;;
59474;SDS011;45288;51.136;16.928;2022-08-03T06:39:56;6.75;;;4.70;;
59474;SDS011;45288;51.136;16.928;2022-08-03T06:42:22;8.82;;;4.80;;
59474;SDS011;45288;51.136;16.928;2022-08-03T06:44:47;7.00;;;5.00;;
59474;SDS011;45288;51.136;16.928;2022-08-03T06:47:13;6.88;;;4.35;;
59474;SDS011;45288;51.136;16.928;2022-08-03T06:49:39;4.87;;;3.87;;
59474;SDS011;45288;51.136;16.928;2022-08-03T06:52:05;7.00;;;4.25;;
59474;SDS011;45288;51.136;16.928;2022-08-03T06:54:31;8.90;;;4.60;;
59474;SDS011;45288;51.136;16.928;2022-08-03T06:56:56;4.75;;;4.35;;
59474;SDS011;45288;51.136;16.928;2022-08-03T06:59:22;6.80;;;4.25;;
59474;SDS011;45288;51.136;16.928;2022-08-03T07:01:48;6.87;;;4.40;;
59474;SDS011;45288;51.136;16.928;2022-08-03T07:04:13;7.38;;;4.68;;
59474;SDS011;45288;51.136;16.928;2022-08-03T07:06:39;7.05;;;4.50;;
59474;SDS011;45288;51.136;16.928;2022-08-03T07:09:05;4.47;;;3.97;;
59474;SDS011;45288;51.136;16.928;2022-08-03T07:11:31;4.53;;;3.90;;
59474;SDS011;45288;51.136;16.928;2022-08-03T07:13:56;6.00;;;4.20;;
59474;SDS011;45288;51.136;16.928;2022-08-03T07:16:22;6.35;;;4.05;;
59474;SDS011;45288;51.136;16.928;2022-08-03T07:18:48;5.57;;;4.10;;
59474;SDS011;45288;51.136;16.928;2022-08-03T07:21:14;5.27;;;4.00;;
59474;SDS011;45288;51.136;16.928;2022-08-03T07:23:41;8.27;;;4.40;;
59474;SDS011;45288;51.136;16.928;2022-08-03T07:26:06;5.10;;;3.80;;
59474;SDS011;45288;51.136;16.928;2022-08-03T07:28:32;6.80;;;4.20;;
59474;SDS011;45288;51.136;16.928;2022-08-03T07:30:58;5.93;;;4.43;;
59474;SDS011;45288;51.136;16.928;2022-08-03T07:33:24;5.28;;;3.90;;
59474;SDS011;45288;51.136;16.928;2022-08-03T07:35:49;8.07;;;4.00;;
59474;SDS011;45288;51.136;16.928;2022-08-03T07:38:15;6.93;;;3.80;;
59474;SDS011;45288;51.136;16.928;2022-08-03T07:40:41;5.13;;;4.18;;
59474;SDS011;45288;51.136;16.928;2022-08-03T07:43:06;4.75;;;3.83;;
59474;SDS011;45288;51.136;16.928;2022-08-03T07:45:32;5.67;;;3.57;;
59474;SDS011;45288;51.136;16.928;2022-08-03T07:47:58;6.03;;;3.50;;
59474;SDS011;45288;51.136;16.928;2022-08-03T07:50:24;4.32;;;3.60;;
59474;SDS011;45288;51.136;16.928;2022-08-03T07:52:50;4.53;;;3.40;;
59474;SDS011;45288;51.136;16.928;2022-08-03T07:55:24;5.67;;;3.67;;
59474;SDS011;45288;51.136;16.928;2022-08-03T07:58:03;4.30;;;3.28;;
59474;SDS011;45288;51.136;16.928;2022-08-03T08:00:29;5.30;;;3.45;;
59474;SDS011;45288;51.136;16.928;2022-08-03T08:02:55;4.67;;;3.40;;
59474;SDS011;45288;51.136;16.928;2022-08-03T08:05:20;4.32;;;3.28;;
59474;SDS011;45288;51.136;16.928;2022-08-03T08:07:46;4.97;;;3.25;;
59474;SDS011;45288;51.136;16.928;2022-08-03T08:10:12;4.40;;;3.50;;
59474;SDS011;45288;51.136;16.928;2022-08-03T08:12:38;3.65;;;3.35;;
59474;SDS011;45288;51.136;16.928;2022-08-03T08:15:04;5.15;;;3.30;;
59474;SDS011;45288;51.136;16.928;2022-08-03T08:17:30;3.97;;;3.35;;
59474;SDS011;45288;51.136;16.928;2022-08-03T08:20:05;3.77;;;3.27;;
59474;SDS011;45288;51.136;16.928;2022-08-03T08:22:30;4.15;;;3.28;;
59474;SDS011;45288;51.136;16.928;2022-08-03T08:24:57;3.70;;;3.40;;
59474;SDS011;45288;51.136;16.928;2022-08-03T08:27:23;4.30;;;3.00;;
59474;SDS011;45288;51.136;16.928;2022-08-03T08:29:49;4.38;;;3.28;;
59474;SDS011;45288;51.136;16.928;2022-08-03T08:32:14;3.30;;;3.00;;
59474;SDS011;45288;51.136;16.928;2022-08-03T08:34:40;3.60;;;3.17;;
59474;SDS011;45288;51.136;16.928;2022-08-03T08:37:06;4.18;;;3.40;;
59474;SDS011;45288;51.136;16.928;2022-08-03T08:39:32;3.50;;;3.00;;
59474;SDS011;45288;51.136;16.928;2022-08-03T08:41:58;4.70;;;3.60;;
59474;SDS011;45288;51.136;16.928;2022-08-03T08:44:23;4.17;;;3.27;;
59474;SDS011;45288;51.136;16.928;2022-08-03T08:46:49;4.97;;;3.38;;
59474;SDS011;45288;51.136;16.928;2022-08-03T08:49:17;3.30;;;3.00;;
59474;SDS011;45288;51.136;16.928;2022-08-03T08:51:45;3.55;;;3.08;;
59474;SDS011;45288;51.136;16.928;2022-08-03T08:54:12;4.73;;;3.30;;
59474;SDS011;45288;51.136;16.928;2022-08-03T08:56:40;3.50;;;3.20;;
59474;SDS011;45288;51.136;16.928;2022-08-03T08:59:05;3.70;;;3.13;;
59474;SDS011;45288;51.136;16.928;2022-08-03T09:01:32;3.73;;;3.27;;
59474;SDS011;45288;51.136;16.928;2022-08-03T09:03:57;3.40;;;3.10;;
59474;SDS011;45288;51.136;16.928;2022-08-03T09:06:23;4.27;;;2.90;;
59474;SDS011;45288;51.136;16.928;2022-08-03T09:08:49;4.50;;;3.10;;
59474;SDS011;45288;51.136;16.928;2022-08-03T09:11:14;6.50;;;3.15;;
59474;SDS011;45288;51.136;16.928;2022-08-03T09:13:40;3.37;;;3.07;;
59474;SDS011;45288;51.136;16.928;2022-08-03T09:16:16;3.10;;;2.80;;
59474;SDS011;45288;51.136;16.928;2022-08-03T09:18:43;4.07;;;3.30;;
59474;SDS011;45288;51.136;16.928;2022-08-03T09:21:13;3.35;;;2.90;;
59474;SDS011;45288;51.136;16.928;2022-08-03T09:23:46;3.67;;;2.90;;
59474;SDS011;45288;51.136;16.928;2022-08-03T09:26:12;3.40;;;3.10;;
59474;SDS011;45288;51.136;16.928;2022-08-03T09:28:43;3.05;;;2.85;;
59474;SDS011;45288;51.136;16.928;2022-08-03T09:31:09;3.93;;;3.00;;
59474;SDS011;45288;51.136;16.928;2022-08-03T09:33:45;4.57;;;3.13;;
59474;SDS011;45288;51.136;16.928;2022-08-03T09:36:11;3.58;;;3.28;;
59474;SDS011;45288;51.136;16.928;2022-08-03T09:39:00;4.15;;;3.38;;
59474;SDS011;45288;51.136;16.928;2022-08-03T09:41:27;3.53;;;3.23;;
59474;SDS011;45288;51.136;16.928;2022-08-03T09:43:53;3.30;;;3.00;;
59474;SDS011;45288;51.136;16.928;2022-08-03T09:46:21;4.00;;;3.25;;
59474;SDS011;45288;51.136;16.928;2022-08-03T09:48:47;3.33;;;2.92;;
59474;SDS011;45288;51.136;16.928;2022-08-03T09:51:13;5.32;;;3.20;;
59474;SDS011;45288;51.136;16.928;2022-08-03T09:53:43;3.40;;;2.80;;
59474;SDS011;45288;51.136;16.928;2022-08-03T09:56:09;3.58;;;3.10;;
59474;SDS011;45288;51.136;16.928;2022-08-03T09:58:43;3.73;;;3.20;;
59474;SDS011;45288;51.136;16.928;2022-08-03T10:01:09;3.60;;;3.10;;
59474;SDS011;45288;51.136;16.928;2022-08-03T10:03:36;3.30;;;3.00;;
59474;SDS011;45288;51.136;16.928;2022-08-03T10:06:15;2.92;;;2.72;;
59474;SDS011;45288;51.136;16.928;2022-08-03T10:08:40;3.80;;;3.30;;
59474;SDS011;45288;51.136;16.928;2022-08-03T10:11:06;3.30;;;3.00;;
59474;SDS011;45288;51.136;16.928;2022-08-03T10:13:32;3.35;;;3.05;;
59474;SDS011;45288;51.136;16.928;2022-08-03T10:15:58;4.03;;;3.07;;
59474;SDS011;45288;51.136;16.928;2022-08-03T10:18:24;3.55;;;3.05;;
59474;SDS011;45288;51.136;16.928;2022-08-03T10:20:52;3.70;;;2.95;;
59474;SDS011;45288;51.136;16.928;2022-08-03T10:23:19;3.40;;;3.05;;
59474;SDS011;45288;51.136;16.928;2022-08-03T10:25:46;5.50;;;3.40;;
59474;SDS011;45288;51.136;16.928;2022-08-03T10:28:14;3.50;;;3.20;;
59474;SDS011;45288;51.136;16.928;2022-08-03T10:30:42;4.23;;;3.00;;
59474;SDS011;45288;51.136;16.928;2022-08-03T10:33:13;3.65;;;3.35;;
59474;SDS011;45288;51.136;16.928;2022-08-03T10:35:41;3.83;;;3.50;;
59474;SDS011;45288;51.136;16.928;2022-08-03T10:38:18;5.47;;;4.55;;
59474;SDS011;45288;51.136;16.928;2022-08-03T10:40:44;3.85;;;3.25;;
59474;SDS011;45288;51.136;16.928;2022-08-03T10:43:20;3.40;;;3.10;;
59474;SDS011;45288;51.136;16.928;2022-08-03T10:45:47;3.30;;;2.97;;
59474;SDS011;45288;51.136;16.928;2022-08-03T10:48:13;3.30;;;3.00;;
59474;SDS011;45288;51.136;16.928;2022-08-03T10:50:39;4.65;;;3.08;;
59474;SDS011;45288;51.136;16.928;2022-08-03T10:53:07;3.50;;;3.00;;
59474;SDS011;45288;51.136;16.928;2022-08-03T10:55:34;3.50;;;3.20;;
59474;SDS011;45288;51.136;16.928;2022-08-03T11:01:03;5.28;;;3.00;;
59474;SDS011;45288;51.136;16.928;2022-08-03T11:03:30;3.35;;;3.03;;
59474;SDS011;45288;51.136;16.928;2022-08-03T11:08:44;3.25;;;2.95;;
59474;SDS011;45288;51.136;16.928;2022-08-03T11:13:58;3.60;;;3.30;;
59474;SDS011;45288;51.136;16.928;2022-08-03T11:16:25;4.55;;;3.55;;
59474;SDS011;45288;51.136;16.928;2022-08-03T11:18:55;3.60;;;3.30;;
59474;SDS011;45288;51.136;16.928;2022-08-03T11:21:21;3.20;;;2.90;;
59474;SDS011;45288;51.136;16.928;2022-08-03T11:24:06;3.35;;;3.05;;
59474;SDS011;45288;51.136;16.928;2022-08-03T11:26:32;3.83;;;2.92;;
59474;SDS011;45288;51.136;16.928;2022-08-03T11:31:43;3.42;;;3.13;;
59474;SDS011;45288;51.136;16.928;2022-08-03T11:34:10;4.47;;;3.13;;
59474;SDS011;45288;51.136;16.928;2022-08-03T11:39:20;3.83;;;3.30;;
59474;SDS011;45288;51.136;16.928;2022-08-03T11:41:46;3.97;;;3.10;;
59474;SDS011;45288;51.136;16.928;2022-08-03T11:44:38;3.50;;;3.10;;
59474;SDS011;45288;51.136;16.928;2022-08-03T11:46:58;3.33;;;3.03;;
59474;SDS011;45288;51.136;16.928;2022-08-03T11:49:24;3.20;;;2.90;;
59474;SDS011;45288;51.136;16.928;2022-08-03T11:51:52;3.17;;;2.90;;
59474;SDS011;45288;51.136;16.928;2022-08-03T11:54:18;3.97;;;3.10;;
59474;SDS011;45288;51.136;16.928;2022-08-03T11:56:48;3.95;;;3.03;;
59474;SDS011;45288;51.136;16.928;2022-08-03T11:59:14;3.65;;;3.10;;
59474;SDS011;45288;51.136;16.928;2022-08-03T12:01:40;4.50;;;3.40;;
59474;SDS011;45288;51.136;16.928;2022-08-03T12:04:05;3.58;;;3.08;;
59474;SDS011;45288;51.136;16.928;2022-08-03T12:06:31;3.30;;;3.00;;
59474;SDS011;45288;51.136;16.928;2022-08-03T12:09:19;3.45;;;3.00;;
59474;SDS011;45288;51.136;16.928;2022-08-03T12:11:48;4.23;;;3.10;;
59474;SDS011;45288;51.136;16.928;2022-08-03T12:14:15;3.40;;;3.03;;
59474;SDS011;45288;51.136;16.928;2022-08-03T12:16:41;4.97;;;3.20;;
59474;SDS011;45288;51.136;16.928;2022-08-03T12:19:11;3.55;;;3.15;;
59474;SDS011;45288;51.136;16.928;2022-08-03T12:21:44;3.40;;;2.83;;
59474;SDS011;45288;51.136;16.928;2022-08-03T12:24:10;3.57;;;3.23;;
59474;SDS011;45288;51.136;16.928;2022-08-03T12:26:43;4.53;;;3.10;;
59474;SDS011;45288;51.136;16.928;2022-08-03T12:29:16;3.10;;;2.80;;
59474;SDS011;45288;51.136;16.928;2022-08-03T12:31:43;3.13;;;2.92;;
59474;SDS011;45288;51.136;16.928;2022-08-03T12:34:09;3.70;;;3.30;;
59474;SDS011;45288;51.136;16.928;2022-08-03T12:36:36;3.27;;;2.90;;
59474;SDS011;45288;51.136;16.928;2022-08-03T12:39:04;3.55;;;3.00;;
59474;SDS011;45288;51.136;16.928;2022-08-03T12:41:34;3.30;;;3.10;;
59474;SDS011;45288;51.136;16.928;2022-08-03T12:44:00;3.38;;;3.17;;
59474;SDS011;45288;51.136;16.928;2022-08-03T12:46:28;4.25;;;2.85;;
59474;SDS011;45288;51.136;16.928;2022-08-03T12:51:27;3.70;;;3.10;;
59474;SDS011;45288;51.136;16.928;2022-08-03T12:53:53;3.08;;;2.88;;
59474;SDS011;45288;51.136;16.928;2022-08-03T12:56:19;3.40;;;3.00;;
59474;SDS011;45288;51.136;16.928;2022-08-03T12:58:45;3.88;;;3.00;;
59474;SDS011;45288;51.136;16.928;2022-08-03T13:01:12;3.10;;;2.90;;
59474;SDS011;45288;51.136;16.928;2022-08-03T13:03:40;3.00;;;2.80;;
59474;SDS011;45288;51.136;16.928;2022-08-03T13:06:14;3.13;;;2.92;;
59474;SDS011;45288;51.136;16.928;2022-08-03T13:08:40;3.10;;;2.90;;
59474;SDS011;45288;51.136;16.928;2022-08-03T13:13:47;3.50;;;2.90;;
59474;SDS011;45288;51.136;16.928;2022-08-03T13:16:13;3.20;;;2.90;;
59474;SDS011;45288;51.136;16.928;2022-08-03T13:18:39;3.90;;;2.80;;
59474;SDS011;45288;51.136;16.928;2022-08-03T13:21:05;3.70;;;3.20;;
59474;SDS011;45288;51.136;16.928;2022-08-03T13:23:31;3.55;;;3.03;;
59474;SDS011;45288;51.136;16.928;2022-08-03T13:25:57;3.35;;;3.08;;
59474;SDS011;45288;51.136;16.928;2022-08-03T13:28:23;3.20;;;2.90;;
59474;SDS011;45288;51.136;16.928;2022-08-03T13:30:49;4.80;;;3.07;;
59474;SDS011;45288;51.136;16.928;2022-08-03T13:33:14;3.00;;;2.80;;
59474;SDS011;45288;51.136;16.928;2022-08-03T13:35:40;4.10;;;3.05;;
59474;SDS011;45288;51.136;16.928;2022-08-03T13:38:06;3.28;;;2.97;;
59474;SDS011;45288;51.136;16.928;2022-08-03T13:40:32;4.37;;;3.30;;
59474;SDS011;45288;51.136;16.928;2022-08-03T13:42:58;3.92;;;3.10;;
59474;SDS011;45288;51.136;16.928;2022-08-03T13:45:24;3.10;;;2.90;;
59474;SDS011;45288;51.136;16.928;2022-08-03T13:47:52;3.40;;;3.10;;
59474;SDS011;45288;51.136;16.928;2022-08-03T13:50:18;3.15;;;2.85;;
59474;SDS011;45288;51.136;16.928;2022-08-03T13:52:44;4.40;;;2.80;;
59474;SDS011;45288;51.136;16.928;2022-08-03T13:55:11;5.95;;;2.90;;
59474;SDS011;45288;51.136;16.928;2022-08-03T13:57:37;3.20;;;2.80;;
59474;SDS011;45288;51.136;16.928;2022-08-03T14:00:03;3.20;;;2.90;;
59474;SDS011;45288;51.136;16.928;2022-08-03T14:02:29;3.22;;;2.95;;
59474;SDS011;45288;51.136;16.928;2022-08-03T14:04:55;3.40;;;3.00;;
59474;SDS011;45288;51.136;16.928;2022-08-03T14:07:21;4.07;;;2.83;;
59474;SDS011;45288;51.136;16.928;2022-08-03T14:09:47;3.10;;;2.80;;
59474;SDS011;45288;51.136;16.928;2022-08-03T14:12:12;4.63;;;3.00;;
59474;SDS011;45288;51.136;16.928;2022-08-03T14:14:38;3.63;;;3.00;;
59474;SDS011;45288;51.136;16.928;2022-08-03T14:17:04;3.03;;;2.83;;
59474;SDS011;45288;51.136;16.928;2022-08-03T14:19:29;3.30;;;3.00;;
59474;SDS011;45288;51.136;16.928;2022-08-03T14:21:56;4.13;;;3.15;;
59474;SDS011;45288;51.136;16.928;2022-08-03T14:24:22;3.38;;;3.03;;
59474;SDS011;45288;51.136;16.928;2022-08-03T14:26:47;3.30;;;3.00;;
59474;SDS011;45288;51.136;16.928;2022-08-03T14:29:13;4.00;;;3.30;;
59474;SDS011;45288;51.136;16.928;2022-08-03T14:31:39;4.60;;;3.97;;
59474;SDS011;45288;51.136;16.928;2022-08-03T14:34:04;3.67;;;3.38;;
59474;SDS011;45288;51.136;16.928;2022-08-03T14:36:30;4.43;;;2.90;;
59474;SDS011;45288;51.136;16.928;2022-08-03T14:38:57;3.05;;;2.75;;
59474;SDS011;45288;51.136;16.928;2022-08-03T14:41:23;5.60;;;3.47;;
59474;SDS011;45288;51.136;16.928;2022-08-03T14:43:48;3.75;;;3.35;;
59474;SDS011;45288;51.136;16.928;2022-08-03T14:46:14;3.30;;;3.00;;
59474;SDS011;45288;51.136;16.928;2022-08-03T14:48:40;4.70;;;3.30;;
59474;SDS011;45288;51.136;16.928;2022-08-03T14:51:05;5.33;;;3.20;;
59474;SDS011;45288;51.136;16.928;2022-08-03T14:53:32;3.20;;;2.90;;
59474;SDS011;45288;51.136;16.928;2022-08-03T14:55:58;5.97;;;3.00;;
59474;SDS011;45288;51.136;16.928;2022-08-03T14:58:24;3.30;;;3.00;;